首页
METAR-TAF:

METAR-TAF

机场 :

Lossiemouth, 苏格兰

纬度: 57-43N, 经度: 003-19W, 海拔: 13米

当前天气观测

该预报发布于1小时和8分钟前的07:50 UTC
风速15节,风向西转西南
温度 3°C
湿度 81%
气压 1009 hPa
能见度10公里或以上
少量云层高于2000英尺

METAR: EGQS 030750Z 25015KT 9999 FEW020 03/M00 Q1009 NOSIG RMK BLU BLU

时间: 09:58 (08:58 UTC)

预报

该预报发布于1小时和16分钟前的07:42 UTC
预报有效从03日的 09点(UTC)到 04日的 03点(UTC)
风速12节,风向西
能见度10公里或以上
少量云层高于1800英尺
散云层高于4000英尺
几率 30% :
短暂存在
从 03日的 09点(UTC)到 03日的 15点(UTC)
能見度: 3000
散云层高于600英尺
多云层高于1400英尺, 积雨云.
阵雪, 阵雨, 小冰雹或雪球
几率 30% :
短暂存在
从 03日的 15点(UTC)到 03日的 18点(UTC)
能見度: 4000
散云层高于1800英尺
阵雨, 雪
几率 30% :
短暂存在
从 03日的 23点(UTC)到 04日的 03点(UTC)
能見度: 7000
散云层高于2200英尺

TAF: EGQS 030742Z 0309/0403 28012KT 9999 FEW018 SCT040 PROB30 TEMPO 0309/0315 3000 SHSN SHGS SCT006 BKN014CB PROB30 TEMPO 0315/0318 4000 SHRASN SCT018 PROB30 TEMPO 0323/0403 7000 RA SCT022

超过4000个机场的气象观测和天气预报(METAR&TAF报告)。

可查询的气象台以黄色和红色小点在地图上表示。

将鼠标移到小点上方,可查看气象台名称。

然后点击查看天气观测和预报。

如需切换地图:点击带黑十字的绿色按钮放大地图;点击带横线的绿色按钮缩小地图;或者点击绿色箭头查看邻近地区的地图。


METAR-TAF: